createdAt,value
2022-11-07T00:12:18.834Z,11.80
2022-11-07T00:27:19.578Z,10.50
2022-11-07T00:42:19.461Z,11.40
2022-11-07T00:57:20.210Z,11.60
2022-11-07T01:12:21.270Z,10.80
2022-11-07T01:27:21.760Z,9.90
2022-11-07T01:42:21.892Z,10.10
2022-11-07T01:57:22.484Z,10.30
2022-11-07T02:12:22.722Z,10.40
2022-11-07T02:27:24.466Z,9.60
2022-11-07T02:42:26.467Z,9.70
2022-11-07T02:57:26.460Z,9.50
2022-11-07T03:12:27.290Z,9.20
2022-11-07T03:27:27.688Z,9.60
2022-11-07T03:42:28.432Z,12.50
2022-11-07T03:57:28.968Z,9.20
2022-11-07T04:12:30.892Z,9.30
2022-11-07T04:27:31.404Z,8.20
2022-11-07T04:42:31.563Z,8.70
2022-11-07T04:57:32.165Z,7.80
2022-11-07T05:12:31.833Z,6.80
2022-11-07T05:27:31.874Z,6.40
2022-11-07T05:42:32.006Z,6.50
2022-11-07T05:57:32.167Z,5.80
2022-11-07T06:12:32.879Z,6.40
2022-11-07T06:27:34.493Z,5.90
2022-11-07T06:42:35.472Z,5.30
2022-11-07T06:57:36.073Z,5.80
2022-11-07T07:12:36.740Z,4.10
2022-11-07T07:27:37.103Z,4.10
2022-11-07T07:42:37.528Z,3.60
2022-11-07T07:57:37.714Z,3.80
2022-11-07T08:12:38.294Z,3.80
2022-11-07T08:27:38.325Z,3.30
2022-11-07T08:42:38.548Z,3.10
2022-11-07T08:57:38.669Z,2.60
2022-11-07T09:12:39.364Z,3.00
2022-11-07T09:27:40.444Z,2.30
2022-11-07T09:42:41.602Z,2.10
2022-11-07T09:57:43.315Z,2.40
2022-11-07T10:12:44.917Z,1.80
2022-11-07T10:27:45.665Z,1.90
2022-11-07T10:42:46.095Z,1.50
2022-11-07T10:57:47.439Z,2.00
2022-11-07T11:12:47.735Z,1.70
2022-11-07T11:27:49.212Z,1.90
2022-11-07T11:42:50.549Z,1.90
2022-11-07T11:57:52.025Z,2.00
2022-11-07T12:12:52.129Z,9.20
2022-11-07T12:27:52.577Z,1.70
2022-11-07T12:42:59.762Z,1.80
2022-11-07T12:58:00.746Z,15.40
2022-11-07T13:13:01.021Z,1.70
2022-11-07T13:28:01.021Z,1.60
2022-11-07T13:43:01.049Z,1.60
2022-11-07T13:58:01.860Z,1.80
2022-11-07T14:13:03.007Z,1.80
2022-11-07T14:28:04.586Z,1.80
2022-11-07T14:43:04.985Z,2.20
2022-11-07T14:58:05.519Z,2.10
2022-11-07T15:13:07.870Z,2.90
2022-11-07T15:28:09.645Z,2.50
2022-11-07T15:43:10.397Z,2.50
2022-11-07T15:58:10.857Z,2.30
2022-11-07T16:13:11.116Z,2.10
2022-11-07T16:28:11.687Z,2.50
2022-11-07T16:43:12.291Z,1.90
2022-11-07T16:58:12.309Z,2.50
2022-11-07T17:13:12.415Z,2.40
2022-11-07T17:28:12.577Z,2.30
2022-11-07T17:43:12.666Z,2.50
2022-11-07T17:58:13.438Z,3.20
2022-11-07T18:13:13.884Z,3.20
2022-11-07T18:28:15.843Z,2.60
2022-11-07T18:43:17.716Z,2.90
2022-11-07T18:58:19.668Z,2.70
2022-11-07T19:13:20.671Z,2.30
2022-11-07T19:28:23.019Z,3.60
2022-11-07T19:43:23.143Z,3.00
2022-11-07T19:58:25.293Z,3.60
2022-11-07T20:13:25.627Z,3.60
2022-11-07T20:28:27.015Z,3.30
2022-11-07T20:43:28.861Z,2.80
2022-11-07T20:58:29.732Z,2.40
2022-11-07T21:13:29.809Z,2.50
2022-11-07T21:28:31.311Z,2.30
2022-11-07T21:43:32.673Z,2.30
2022-11-07T21:58:34.080Z,2.40
2022-11-07T22:13:34.092Z,2.40
2022-11-07T22:28:35.408Z,2.10
2022-11-07T22:43:37.111Z,2.10
2022-11-07T22:58:37.885Z,2.10
2022-11-07T23:13:37.912Z,2.40
2022-11-07T23:28:44.097Z,2.70
2022-11-07T23:43:49.824Z,2.50
2022-11-07T23:58:52.165Z,2.70
